Time;durP1;ratioP1;P1;durP2;ratioP2;P2;SDS_P1;SDS_P2;PMS_P1;PMS_P2;Temp;Humidity;BMP_temperature;BMP_pressure;BME280_temperature;BME280_humidity;BME280_pressure;Samples;Min_cycle;Max_cycle;Signal;HPM_P1;HPM_P2
2021/11/27 00:01:11;;;;;;;2.88;2.28;;;;;;;;;;4953186;28;20236;-69
2021/11/27 00:03:37;;;;;;;4.68;2.63;;;;;;;;;;4952241;28;20082;-69
2021/11/27 00:06:04;;;;;;;4.50;2.30;;;;;;;;;;4952615;28;20051;-69
2021/11/27 00:08:31;;;;;;;2.92;2.30;;;;;;;;;;4966631;28;20517;-69
2021/11/27 00:10:59;;;;;;;4.22;2.00;;;;;;;;;;4954856;28;20570;-68
2021/11/27 00:13:27;;;;;;;5.47;2.42;;;;;;;;;;4956526;28;20051;-69
2021/11/27 00:15:53;;;;;;;5.38;2.33;;;;;;;;;;4956568;28;20059;-69
2021/11/27 00:18:21;;;;;;;2.72;2.00;;;;;;;;;;4956607;28;20055;-69
2021/11/27 00:20:52;;;;;;;4.40;2.30;;;;;;;;;;4956050;28;20061;-69
2021/11/27 00:23:19;;;;;;;3.22;2.10;;;;;;;;;;4956424;28;20051;-68
2021/11/27 00:25:45;;;;;;;3.92;1.88;;;;;;;;;;4956522;28;20055;-69
2021/11/27 00:28:12;;;;;;;3.22;2.28;;;;;;;;;;4956458;28;20074;-68
2021/11/27 00:30:39;;;;;;;3.80;2.40;;;;;;;;;;4956291;28;20048;-69
2021/11/27 00:33:06;;;;;;;2.90;2.03;;;;;;;;;;4956224;28;20105;-68
2021/11/27 00:35:33;;;;;;;2.85;1.90;;;;;;;;;;4956201;28;20055;-69
2021/11/27 00:38:00;;;;;;;3.92;2.20;;;;;;;;;;4956244;28;20052;-69
2021/11/27 00:40:27;;;;;;;3.60;2.10;;;;;;;;;;4956536;28;20043;-69
2021/11/27 00:42:55;;;;;;;2.78;1.83;;;;;;;;;;4956301;28;20047;-69
2021/11/27 00:45:23;;;;;;;2.75;2.10;;;;;;;;;;4956049;28;20062;-69
2021/11/27 00:47:52;;;;;;;3.83;1.80;;;;;;;;;;4956043;28;20502;-69
2021/11/27 00:50:22;;;;;;;4.00;2.20;;;;;;;;;;4956186;28;20043;-69
2021/11/27 00:52:49;;;;;;;3.83;2.17;;;;;;;;;;4955815;28;20449;-69
2021/11/27 00:55:16;;;;;;;3.40;2.00;;;;;;;;;;4969462;28;20055;-69
2021/11/27 00:57:43;;;;;;;3.05;1.77;;;;;;;;;;4975091;28;20055;-69
2021/11/27 01:00:12;;;;;;;5.85;2.78;;;;;;;;;;4975140;28;20074;-69
2021/11/27 01:02:39;;;;;;;3.97;2.20;;;;;;;;;;4974878;28;20054;-69
2021/11/27 01:05:09;;;;;;;2.97;2.28;;;;;;;;;;4975256;28;20134;-69
2021/11/27 01:07:36;;;;;;;3.17;2.05;;;;;;;;;;4976296;28;20050;-69
2021/11/27 01:10:04;;;;;;;4.65;2.72;;;;;;;;;;4975485;28;20051;-69
2021/11/27 01:12:31;;;;;;;3.13;2.08;;;;;;;;;;4973872;28;20066;-69
2021/11/27 01:14:58;;;;;;;4.07;2.13;;;;;;;;;;4975311;28;20126;-69
2021/11/27 01:17:24;;;;;;;2.78;1.67;;;;;;;;;;4974932;28;20082;-69
2021/11/27 01:19:51;;;;;;;3.45;2.45;;;;;;;;;;4960168;28;20565;-70
2021/11/27 01:22:21;;;;;;;4.82;2.67;;;;;;;;;;4954837;28;20051;-70
2021/11/27 01:24:48;;;;;;;3.05;2.17;;;;;;;;;;4954690;28;20084;-69
2021/11/27 01:27:15;;;;;;;3.50;2.42;;;;;;;;;;4954097;28;20114;-69
2021/11/27 01:29:42;;;;;;;2.92;2.30;;;;;;;;;;4954132;29;20058;-70
2021/11/27 01:32:11;;;;;;;3.60;2.35;;;;;;;;;;4955609;28;20054;-70
2021/11/27 01:34:39;;;;;;;4.53;2.63;;;;;;;;;;4955714;28;20430;-70
2021/11/27 01:37:06;;;;;;;5.22;2.60;;;;;;;;;;4955554;28;20130;-70
2021/11/27 01:39:33;;;;;;;4.13;2.33;;;;;;;;;;4955263;28;20057;-70
2021/11/27 01:42:00;;;;;;;4.85;2.63;;;;;;;;;;4955445;28;20421;-70
2021/11/27 01:44:27;;;;;;;4.82;2.83;;;;;;;;;;4972868;28;20106;-70
2021/11/27 01:46:54;;;;;;;3.92;2.63;;;;;;;;;;4970184;28;20047;-69
2021/11/27 01:49:21;;;;;;;4.60;2.88;;;;;;;;;;4974588;28;20054;-70
2021/11/27 01:51:47;;;;;;;6.22;2.80;;;;;;;;;;4974377;28;20062;-70
2021/11/27 01:54:14;;;;;;;4.25;2.83;;;;;;;;;;4974342;28;20533;-70
2021/11/27 01:56:50;;;;;;;4.28;2.80;;;;;;;;;;4969988;28;20051;-69
2021/11/27 01:59:17;;;;;;;4.85;3.17;;;;;;;;;;4954722;28;20055;-68
2021/11/27 02:01:45;;;;;;;5.60;3.58;;;;;;;;;;4954594;28;20051;-69
2021/11/27 02:04:12;;;;;;;3.72;2.95;;;;;;;;;;4954638;28;20090;-69
2021/11/27 02:06:40;;;;;;;5.32;3.03;;;;;;;;;;4954523;28;20051;-68
2021/11/27 02:09:12;;;;;;;4.47;3.13;;;;;;;;;;4954591;28;20054;-69
2021/11/27 02:11:39;;;;;;;4.13;3.05;;;;;;;;;;4954591;28;20051;-69
2021/11/27 02:14:07;;;;;;;3.97;2.83;;;;;;;;;;4954321;29;20137;-69
2021/11/27 02:16:35;;;;;;;4.00;3.13;;;;;;;;;;4954276;28;20396;-69
2021/11/27 02:19:02;;;;;;;4.35;3.00;;;;;;;;;;4973386;28;20055;-68
2021/11/27 02:21:29;;;;;;;3.95;2.78;;;;;;;;;;4973145;28;20055;-69
2021/11/27 02:23:55;;;;;;;4.22;2.78;;;;;;;;;;4973540;28;20086;-69
2021/11/27 02:26:28;;;;;;;5.15;3.10;;;;;;;;;;4962600;28;20061;-69
2021/11/27 02:29:17;;;;;;;4.32;2.78;;;;;;;;;;4954199;28;20062;-69
2021/11/27 02:31:44;;;;;;;3.90;2.70;;;;;;;;;;4953776;28;20126;-69
2021/11/27 02:34:11;;;;;;;5.25;3.22;;;;;;;;;;4953550;28;20055;-68
2021/11/27 02:36:40;;;;;;;5.70;3.08;;;;;;;;;;4965320;28;20076;-69
2021/11/27 02:39:09;;;;;;;5.97;3.70;;;;;;;;;;4973165;28;20097;-68
2021/11/27 02:41:36;;;;;;;5.60;3.10;;;;;;;;;;4973195;28;20043;-69
2021/11/27 02:44:03;;;;;;;5.35;3.03;;;;;;;;;;4973311;28;20054;-69
2021/11/27 02:46:30;;;;;;;5.90;3.65;;;;;;;;;;4961212;28;20093;-69
2021/11/27 02:48:56;;;;;;;5.47;3.35;;;;;;;;;;4954026;28;20422;-69
2021/11/27 02:51:23;;;;;;;4.50;3.05;;;;;;;;;;4954178;28;20053;-69
2021/11/27 02:53:49;;;;;;;5.00;3.30;;;;;;;;;;4953821;28;20055;-68
2021/11/27 02:56:16;;;;;;;4.72;3.25;;;;;;;;;;4953859;28;20051;-69
2021/11/27 02:58:43;;;;;;;6.93;3.55;;;;;;;;;;4953874;28;20047;-69
2021/11/27 03:01:10;;;;;;;4.85;3.50;;;;;;;;;;4953771;28;20051;-69
2021/11/27 03:03:39;;;;;;;3.38;2.65;;;;;;;;;;4953515;28;20074;-69
2021/11/27 03:06:06;;;;;;;4.50;3.08;;;;;;;;;;4961683;28;20070;-69
2021/11/27 03:08:33;;;;;;;3.97;2.80;;;;;;;;;;4972937;28;20297;-69
2021/11/27 03:11:00;;;;;;;4.47;3.05;;;;;;;;;;4973116;28;20051;-70
2021/11/27 03:13:34;;;;;;;4.55;2.92;;;;;;;;;;4969326;28;20522;-69
2021/11/27 03:16:01;;;;;;;6.93;3.17;;;;;;;;;;4961923;28;20481;-69
2021/11/27 03:18:27;;;;;;;4.85;2.95;;;;;;;;;;4964288;28;20182;-69
2021/11/27 03:20:54;;;;;;;4.68;3.30;;;;;;;;;;4964188;28;20062;-69
2021/11/27 03:23:21;;;;;;;3.55;3.00;;;;;;;;;;4962165;28;20043;-69
2021/11/27 03:25:48;;;;;;;4.60;2.85;;;;;;;;;;4964498;28;20050;-69
2021/11/27 03:28:15;;;;;;;4.60;2.80;;;;;;;;;;4967206;28;20133;-69
2021/11/27 03:30:42;;;;;;;4.78;2.83;;;;;;;;;;4972680;28;20568;-69
2021/11/27 03:33:09;;;;;;;4.00;3.00;;;;;;;;;;4972758;28;20435;-69
2021/11/27 03:35:35;;;;;;;6.72;2.90;;;;;;;;;;4972580;28;20077;-69
2021/11/27 03:38:03;;;;;;;4.22;3.17;;;;;;;;;;4972541;28;20138;-69
2021/11/27 03:40:32;;;;;;;4.50;3.13;;;;;;;;;;4972580;28;20054;-69
2021/11/27 03:42:59;;;;;;;5.78;2.72;;;;;;;;;;4972638;28;20047;-70
2021/11/27 03:45:26;;;;;;;3.70;2.67;;;;;;;;;;4972385;28;20051;-70
2021/11/27 03:48:06;;;;;;;5.85;3.50;;;;;;;;;;4975934;28;20054;-70
2021/11/27 03:50:36;;;;;;;4.90;2.83;;;;;;;;;;4977076;28;20043;-70
2021/11/27 03:53:03;;;;;;;4.35;2.95;;;;;;;;;;4976612;28;20055;-70
2021/11/27 03:55:30;;;;;;;7.15;3.13;;;;;;;;;;5005639;28;20051;-70
2021/11/27 03:57:57;;;;;;;4.13;2.70;;;;;;;;;;4957105;28;20130;-70
2021/11/27 04:00:23;;;;;;;3.13;2.22;;;;;;;;;;4959428;28;20383;-69
2021/11/27 04:02:51;;;;;;;3.42;2.92;;;;;;;;;;4966628;28;20051;-69
2021/11/27 04:05:18;;;;;;;4.15;2.03;;;;;;;;;;4994395;28;20141;-68
2021/11/27 04:07:44;;;;;;;3.58;2.28;;;;;;;;;;4964891;28;20047;-68
2021/11/27 04:10:11;;;;;;;3.50;2.30;;;;;;;;;;4966771;28;20054;-69
2021/11/27 04:12:38;;;;;;;3.10;2.35;;;;;;;;;;4964904;28;20051;-69
2021/11/27 04:15:08;;;;;;;4.47;2.30;;;;;;;;;;4973132;28;20134;-68
2021/11/27 04:17:34;;;;;;;3.97;2.47;;;;;;;;;;4975714;28;20108;-68
2021/11/27 04:20:01;;;;;;;3.78;2.10;;;;;;;;;;4975955;28;20054;-68
2021/11/27 04:22:28;;;;;;;2.90;2.13;;;;;;;;;;4975783;28;20501;-69
2021/11/27 04:24:55;;;;;;;2.25;1.70;;;;;;;;;;4975989;28;20109;-69
2021/11/27 04:27:21;;;;;;;3.42;2.20;;;;;;;;;;4975736;28;20051;-69
2021/11/27 04:29:48;;;;;;;4.45;2.00;;;;;;;;;;4975672;28;20051;-69
2021/11/27 04:32:15;;;;;;;3.20;2.05;;;;;;;;;;4975145;28;20054;-70
2021/11/27 04:34:41;;;;;;;3.60;1.75;;;;;;;;;;4974963;28;20101;-70
2021/11/27 04:37:10;;;;;;;2.78;1.92;;;;;;;;;;4974911;28;20054;-70
2021/11/27 04:39:38;;;;;;;2.45;1.98;;;;;;;;;;4973228;28;20130;-69
2021/11/27 04:42:05;;;;;;;3.53;2.17;;;;;;;;;;4975555;28;20047;-69
2021/11/27 04:44:32;;;;;;;3.70;1.50;;;;;;;;;;4975124;28;20051;-69
2021/11/27 04:46:59;;;;;;;2.45;1.70;;;;;;;;;;4975820;28;20058;-69
2021/11/27 04:49:27;;;;;;;2.60;1.77;;;;;;;;;;4975413;28;20105;-69
2021/11/27 04:51:54;;;;;;;4.25;1.88;;;;;;;;;;4975235;28;20051;-70
2021/11/27 04:54:20;;;;;;;1.77;1.30;;;;;;;;;;4975444;28;20046;-69
2021/11/27 04:56:47;;;;;;;2.97;1.30;;;;;;;;;;4975137;28;20556;-69
2021/11/27 04:59:14;;;;;;;2.20;1.55;;;;;;;;;;4960811;28;20142;-69
2021/11/27 05:01:41;;;;;;;2.53;1.40;;;;;;;;;;4955857;28;20047;-69
2021/11/27 05:04:09;;;;;;;1.67;1.58;;;;;;;;;;4954569;28;20051;-69
2021/11/27 05:06:36;;;;;;;2.15;1.10;;;;;;;;;;4955549;28;20051;-70
2021/11/27 05:09:03;;;;;;;1.67;1.20;;;;;;;;;;4958102;28;20051;-68
2021/11/27 05:11:29;;;;;;;2.08;1.25;;;;;;;;;;4955137;28;20051;-69
2021/11/27 05:13:56;;;;;;;1.48;1.13;;;;;;;;;;4955030;28;20058;-69
2021/11/27 05:16:24;;;;;;;3.85;1.65;;;;;;;;;;4954480;28;20106;-70
2021/11/27 05:18:50;;;;;;;1.80;1.30;;;;;;;;;;4955272;28;20055;-69
2021/11/27 05:21:17;;;;;;;2.10;1.17;;;;;;;;;;4955369;28;20047;-69
2021/11/27 05:23:43;;;;;;;2.58;1.35;;;;;;;;;;4955201;28;20051;-69
2021/11/27 05:26:10;;;;;;;3.50;1.20;;;;;;;;;;4959805;28;20494;-69
2021/11/27 05:28:37;;;;;;;2.75;1.30;;;;;;;;;;4974431;28;20051;-69
2021/11/27 05:31:03;;;;;;;2.20;1.30;;;;;;;;;;4974925;28;20121;-69
2021/11/27 05:33:46;;;;;;;1.80;1.40;;;;;;;;;;4974433;28;20144;-69
2021/11/27 05:36:15;;;;;;;1.73;1.25;;;;;;;;;;4969443;28;20047;-69
2021/11/27 05:38:43;;;;;;;1.10;1.00;;;;;;;;;;4953826;29;20051;-69
2021/11/27 05:41:10;;;;;;;1.33;1.15;;;;;;;;;;4953881;29;20047;-69
2021/11/27 05:43:37;;;;;;;1.45;1.10;;;;;;;;;;4954804;28;20055;-70
2021/11/27 05:46:03;;;;;;;2.15;1.05;;;;;;;;;;4955014;28;20391;-70
2021/11/27 05:48:30;;;;;;;1.52;1.00;;;;;;;;;;4954787;28;20055;-70
2021/11/27 05:50:57;;;;;;;2.72;1.02;;;;;;;;;;4955012;28;20051;-70
2021/11/27 05:53:24;;;;;;;1.92;1.00;;;;;;;;;;4954313;29;20426;-70
2021/11/27 05:55:51;;;;;;;0.95;0.70;;;;;;;;;;4955081;28;20059;-69
2021/11/27 05:58:20;;;;;;;2.30;1.30;;;;;;;;;;4954822;29;20058;-70
2021/11/27 06:00:47;;;;;;;1.20;1.10;;;;;;;;;;4954750;28;20051;-70
2021/11/27 06:03:13;;;;;;;1.75;0.80;;;;;;;;;;4954582;28;20051;-69
2021/11/27 06:05:40;;;;;;;1.08;0.90;;;;;;;;;;4954778;28;20558;-68
2021/11/27 06:08:07;;;;;;;1.30;0.95;;;;;;;;;;4954622;28;20525;-69
2021/11/27 06:10:33;;;;;;;2.10;1.38;;;;;;;;;;4954253;28;20051;-69
2021/11/27 06:13:02;;;;;;;2.88;0.90;;;;;;;;;;4954629;28;20551;-69
2021/11/27 06:15:29;;;;;;;1.15;0.73;;;;;;;;;;4954555;28;20055;-69
2021/11/27 06:17:56;;;;;;;1.20;0.90;;;;;;;;;;4953500;28;20668;-69
2021/11/27 06:20:22;;;;;;;1.00;0.70;;;;;;;;;;4954344;28;20098;-69
2021/11/27 06:22:49;;;;;;;0.85;0.70;;;;;;;;;;4954251;28;20055;-69
2021/11/27 06:25:26;;;;;;;1.00;0.80;;;;;;;;;;4954227;28;20051;-69
2021/11/27 06:27:52;;;;;;;0.80;0.77;;;;;;;;;;4954232;28;20051;-69
2021/11/27 06:30:19;;;;;;;0.80;0.60;;;;;;;;;;4954262;28;20498;-69
2021/11/27 06:32:46;;;;;;;1.60;0.80;;;;;;;;;;4954101;28;20044;-69
2021/11/27 06:35:13;;;;;;;0.80;0.77;;;;;;;;;;4953101;29;20106;-69
2021/11/27 06:37:40;;;;;;;1.33;0.82;;;;;;;;;;4969434;28;20070;-70
2021/11/27 06:40:11;;;;;;;1.92;0.88;;;;;;;;;;4973451;28;20073;-70
2021/11/27 06:42:38;;;;;;;0.98;0.77;;;;;;;;;;4973248;28;20109;-70
2021/11/27 06:45:05;;;;;;;1.63;1.10;;;;;;;;;;4973486;28;20050;-70
2021/11/27 06:47:32;;;;;;;0.90;0.60;;;;;;;;;;4959156;28;20054;-70
2021/11/27 06:49:58;;;;;;;1.00;0.80;;;;;;;;;;4954327;28;20466;-70
2021/11/27 06:52:26;;;;;;;0.70;0.70;;;;;;;;;;4953994;28;20047;-69
2021/11/27 06:54:52;;;;;;;1.73;0.70;;;;;;;;;;4954220;28;20071;-69
2021/11/27 06:57:23;;;;;;;0.85;0.80;;;;;;;;;;4963802;28;20047;-70
2021/11/27 06:59:49;;;;;;;1.25;0.93;;;;;;;;;;4973200;28;20521;-70
2021/11/27 07:02:16;;;;;;;1.23;0.85;;;;;;;;;;4972947;28;20046;-70
2021/11/27 07:04:43;;;;;;;0.85;0.85;;;;;;;;;;4972938;28;20510;-72
2021/11/27 07:07:09;;;;;;;2.20;1.25;;;;;;;;;;4971532;28;20121;-69
2021/11/27 07:09:36;;;;;;;2.92;1.00;;;;;;;;;;4972997;28;20117;-69
2021/11/27 07:12:03;;;;;;;2.60;1.40;;;;;;;;;;4973219;28;20050;-69
2021/11/27 07:14:29;;;;;;;1.90;1.08;;;;;;;;;;4973010;28;20110;-70
2021/11/27 07:16:56;;;;;;;1.55;0.90;;;;;;;;;;4972902;28;20086;-70
2021/11/27 07:19:23;;;;;;;1.10;0.90;;;;;;;;;;4972930;28;20560;-69
2021/11/27 07:21:49;;;;;;;1.35;1.25;;;;;;;;;;4974239;28;20047;-70
2021/11/27 07:24:16;;;;;;;0.90;0.80;;;;;;;;;;4976908;28;20477;-70
2021/11/27 07:26:42;;;;;;;0.98;0.80;;;;;;;;;;4976706;28;20058;-70
2021/11/27 07:29:09;;;;;;;3.88;1.30;;;;;;;;;;4976779;28;20058;-70
2021/11/27 07:31:36;;;;;;;3.83;1.20;;;;;;;;;;4976662;28;20047;-70
2021/11/27 07:34:02;;;;;;;1.58;0.88;;;;;;;;;;4976750;28;20051;-70
2021/11/27 07:36:29;;;;;;;2.35;1.48;;;;;;;;;;4976506;28;20054;-70
2021/11/27 07:39:02;;;;;;;2.90;1.70;;;;;;;;;;4976667;28;20133;-69
2021/11/27 07:41:28;;;;;;;2.08;1.88;;;;;;;;;;4957860;28;20114;-69
2021/11/27 07:43:55;;;;;;;2.05;1.20;;;;;;;;;;4957309;28;20491;-68
2021/11/27 07:46:22;;;;;;;1.52;1.40;;;;;;;;;;4970782;28;20054;-68
2021/11/27 07:48:48;;;;;;;3.50;1.70;;;;;;;;;;4972704;28;20075;-70
2021/11/27 07:51:15;;;;;;;1.73;1.50;;;;;;;;;;4957242;28;20051;-70
2021/11/27 07:53:43;;;;;;;2.08;1.00;;;;;;;;;;4957165;28;20051;-69
2021/11/27 07:56:12;;;;;;;1.15;1.00;;;;;;;;;;4957065;28;20099;-68
2021/11/27 07:58:39;;;;;;;2.60;1.20;;;;;;;;;;4955743;28;20506;-70
2021/11/27 08:01:05;;;;;;;2.03;1.67;;;;;;;;;;4956911;28;20478;-70
2021/11/27 08:03:33;;;;;;;3.10;1.40;;;;;;;;;;4956918;29;20051;-70
2021/11/27 08:06:00;;;;;;;2.00;1.38;;;;;;;;;;4956878;28;20051;-70
2021/11/27 08:08:27;;;;;;;1.88;1.30;;;;;;;;;;4963933;28;20110;-70
2021/11/27 08:10:53;;;;;;;1.58;1.30;;;;;;;;;;4976063;28;20231;-68
2021/11/27 08:13:20;;;;;;;1.02;0.80;;;;;;;;;;4974788;28;20098;-68
2021/11/27 08:15:47;;;;;;;1.90;0.90;;;;;;;;;;4967258;28;20106;-68
2021/11/27 08:18:13;;;;;;;1.13;0.70;;;;;;;;;;4956657;28;20473;-69
2021/11/27 08:20:42;;;;;;;1.08;0.90;;;;;;;;;;4956489;28;20134;-69
2021/11/27 08:23:09;;;;;;;1.13;0.80;;;;;;;;;;4956446;28;20052;-69
2021/11/27 08:25:35;;;;;;;1.40;0.98;;;;;;;;;;4956228;28;21787;-69
2021/11/27 08:28:03;;;;;;;1.23;0.75;;;;;;;;;;4956394;29;20117;-69
2021/11/27 08:30:29;;;;;;;0.88;0.80;;;;;;;;;;4958316;28;20058;-68
2021/11/27 08:32:56;;;;;;;1.15;0.90;;;;;;;;;;4970077;28;20055;-68
2021/11/27 08:35:23;;;;;;;1.33;0.90;;;;;;;;;;4975765;28;20406;-68
2021/11/27 08:37:49;;;;;;;1.13;1.02;;;;;;;;;;4965079;28;20470;-68
2021/11/27 08:40:16;;;;;;;0.70;0.70;;;;;;;;;;4961834;28;20109;-68
2021/11/27 08:42:44;;;;;;;1.50;0.90;;;;;;;;;;4962411;28;20103;-69
2021/11/27 08:45:11;;;;;;;10.55;4.25;;;;;;;;;;4963923;28;20086;-69
2021/11/27 08:47:38;;;;;;;1.98;1.33;;;;;;;;;;4962645;28;20055;-66
2021/11/27 08:50:06;;;;;;;1.23;1.02;;;;;;;;;;4966969;28;20051;-67
2021/11/27 08:52:32;;;;;;;1.35;1.00;;;;;;;;;;4955772;28;20471;-68
2021/11/27 08:54:59;;;;;;;2.83;1.88;;;;;;;;;;4956097;29;20102;-68
2021/11/27 08:57:26;;;;;;;2.53;1.55;;;;;;;;;;4956084;28;20175;-68
2021/11/27 08:59:52;;;;;;;2.35;1.25;;;;;;;;;;4956021;29;20055;-68
2021/11/27 09:02:19;;;;;;;2.45;1.60;;;;;;;;;;4955797;29;20051;-68
2021/11/27 09:04:46;;;;;;;1.90;1.25;;;;;;;;;;4955587;29;20055;-68
2021/11/27 09:07:12;;;;;;;1.40;1.10;;;;;;;;;;4956803;28;20569;-68
2021/11/27 09:09:39;;;;;;;1.90;1.20;;;;;;;;;;4958914;28;20548;-68
2021/11/27 09:12:10;;;;;;;1.20;0.90;;;;;;;;;;4969678;28;20047;-68
2021/11/27 09:14:36;;;;;;;1.40;1.02;;;;;;;;;;4964836;28;20510;-68
2021/11/27 09:17:03;;;;;;;1.02;0.80;;;;;;;;;;4955537;28;20055;-68
2021/11/27 09:19:30;;;;;;;1.48;0.85;;;;;;;;;;4954408;28;20079;-67
2021/11/27 09:21:57;;;;;;;1.48;1.10;;;;;;;;;;4955310;28;20070;-68
2021/11/27 09:24:24;;;;;;;1.33;0.98;;;;;;;;;;4955447;28;20055;-68
2021/11/27 09:26:51;;;;;;;1.17;1.08;;;;;;;;;;4955446;28;20055;-68
2021/11/27 09:29:18;;;;;;;1.95;0.90;;;;;;;;;;4960703;28;20051;-68
2021/11/27 09:31:45;;;;;;;2.67;0.82;;;;;;;;;;4974565;28;20054;-68
2021/11/27 09:34:12;;;;;;;1.63;1.17;;;;;;;;;;4974475;28;20106;-68
2021/11/27 09:36:40;;;;;;;3.30;1.05;;;;;;;;;;4974392;28;20059;-68
2021/11/27 09:39:09;;;;;;;1.48;1.00;;;;;;;;;;4969180;28;20051;-67
2021/11/27 09:41:39;;;;;;;1.35;1.02;;;;;;;;;;4966110;28;20050;-68
2021/11/27 09:44:06;;;;;;;2.20;1.38;;;;;;;;;;4973871;28;20101;-65
2021/11/27 09:46:34;;;;;;;1.60;1.30;;;;;;;;;;4965155;28;20121;-67
2021/11/27 09:49:04;;;;;;;1.27;0.68;;;;;;;;;;4974177;28;20058;-68
2021/11/27 09:51:33;;;;;;;1.90;1.20;;;;;;;;;;4974183;28;20054;-65
2021/11/27 09:54:00;;;;;;;2.88;1.50;;;;;;;;;;4960712;28;20051;-68
2021/11/27 09:56:27;;;;;;;2.05;1.05;;;;;;;;;;4954713;28;20055;-67
2021/11/27 09:58:55;;;;;;;1.42;1.10;;;;;;;;;;4954197;28;20051;-66
2021/11/27 10:01:27;;;;;;;1.13;0.75;;;;;;;;;;4962922;28;20055;-65
2021/11/27 10:04:03;;;;;;;2.70;0.88;;;;;;;;;;4982344;28;20062;-66
2021/11/27 10:06:37;;;;;;;1.63;0.73;;;;;;;;;;4967749;28;20050;-67
2021/11/27 10:09:15;;;;;;;2.42;0.93;;;;;;;;;;4959131;28;20055;-66
2021/11/27 10:11:43;;;;;;;2.25;0.80;;;;;;;;;;4963786;28;20050;-66
2021/11/27 10:14:10;;;;;;;2.95;1.00;;;;;;;;;;4962537;28;20046;-65
2021/11/27 10:16:59;;;;;;;1.70;1.20;;;;;;;;;;4961734;28;20047;-65
2021/11/27 10:19:28;;;;;;;0.80;0.60;;;;;;;;;;4961008;28;20109;-65
2021/11/27 10:22:01;;;;;;;0.88;0.60;;;;;;;;;;4959755;28;20067;-64
2021/11/27 10:24:30;;;;;;;3.03;1.23;;;;;;;;;;4964245;28;20054;-66
2021/11/27 10:27:00;;;;;;;1.63;0.98;;;;;;;;;;4959434;28;20051;-65
2021/11/27 10:29:33;;;;;;;2.33;1.00;;;;;;;;;;4962424;28;20050;-64
2021/11/27 10:32:15;;;;;;;0.70;0.43;;;;;;;;;;4961218;28;20051;-65
2021/11/27 10:34:54;;;;;;;1.23;0.60;;;;;;;;;;4961052;28;20055;-65
2021/11/27 10:37:35;;;;;;;1.00;0.90;;;;;;;;;;4959024;28;20106;-65
2021/11/27 10:40:02;;;;;;;0.63;0.60;;;;;;;;;;4965796;28;20046;-66
2021/11/27 10:42:29;;;;;;;3.20;0.70;;;;;;;;;;4959557;28;20498;-66
2021/11/27 10:44:56;;;;;;;2.00;0.70;;;;;;;;;;4960327;28;20097;-66
2021/11/27 10:47:23;;;;;;;2.70;0.82;;;;;;;;;;4963811;28;20082;-64
2021/11/27 10:49:50;;;;;;;1.48;0.70;;;;;;;;;;4965950;28;20081;-71
2021/11/27 10:52:20;;;;;;;1.27;0.68;;;;;;;;;;4960676;28;20051;-66
2021/11/27 10:54:58;;;;;;;3.78;0.73;;;;;;;;;;4960548;28;20074;-63
2021/11/27 10:57:32;;;;;;;2.20;1.30;;;;;;;;;;4961651;28;20102;-64
2021/11/27 11:00:07;;;;;;;3.95;0.80;;;;;;;;;;4963358;28;20117;-64
2021/11/27 11:02:36;;;;;;;2.95;0.80;;;;;;;;;;4958898;28;20047;-63
2021/11/27 11:05:09;;;;;;;1.02;0.52;;;;;;;;;;4962768;28;20055;-63
2021/11/27 11:07:35;;;;;;;;;;;;;;;;;;4961105;28;20051;-64
2021/11/27 11:10:25;;;;;;;1.42;0.95;;;;;;;;;;4961519;28;20270;-63
2021/11/27 11:12:57;;;;;;;2.85;1.15;;;;;;;;;;4959186;28;20051;-63
2021/11/27 11:15:29;;;;;;;0.90;0.70;;;;;;;;;;4963004;28;20058;-63
2021/11/27 11:18:05;;;;;;;1.98;0.90;;;;;;;;;;4961322;28;20077;-63
2021/11/27 11:20:32;;;;;;;5.00;1.98;;;;;;;;;;4962530;28;20047;-63
2021/11/27 11:23:00;;;;;;;3.22;0.70;;;;;;;;;;4958803;28;20059;-63
2021/11/27 11:25:27;;;;;;;0.82;0.70;;;;;;;;;;4961209;28;20129;-64
2021/11/27 11:27:55;;;;;;;3.60;0.90;;;;;;;;;;4959076;28;20055;-63
2021/11/27 11:30:23;;;;;;;1.98;1.33;;;;;;;;;;4960126;28;20059;-64
2021/11/27 11:32:50;;;;;;;4.05;1.00;;;;;;;;;;4959142;28;20465;-63
2021/11/27 11:35:16;;;;;;;1.10;0.80;;;;;;;;;;4963017;28;20102;-64
2021/11/27 11:37:43;;;;;;;3.40;1.90;;;;;;;;;;4959879;28;20532;-63
2021/11/27 11:40:10;;;;;;;2.75;1.63;;;;;;;;;;4961451;28;20055;-64
2021/11/27 11:42:37;;;;;;;3.78;1.83;;;;;;;;;;4960165;28;20098;-64
2021/11/27 11:45:05;;;;;;;2.72;1.52;;;;;;;;;;4961005;28;20098;-64
2021/11/27 11:47:36;;;;;;;5.35;2.97;;;;;;;;;;4963490;28;20525;-64
2021/11/27 11:50:06;;;;;;;3.08;0.90;;;;;;;;;;4960613;28;20078;-63
2021/11/27 11:52:45;;;;;;;0.80;0.80;;;;;;;;;;4958912;28;20051;-64
2021/11/27 11:55:17;;;;;;;4.82;0.70;;;;;;;;;;4961463;28;20102;-64
2021/11/27 11:57:47;;;;;;;4.97;0.90;;;;;;;;;;4957157;28;20059;-64
2021/11/27 12:00:23;;;;;;;1.92;0.95;;;;;;;;;;4964853;28;20051;-64
2021/11/27 12:02:50;;;;;;;0.77;0.57;;;;;;;;;;4966410;28;20051;-68
2021/11/27 12:05:19;;;;;;;0.63;0.45;;;;;;;;;;4963432;28;20047;-64
2021/11/27 12:07:48;;;;;;;0.77;0.52;;;;;;;;;;4961350;28;20059;-63
2021/11/27 12:10:42;;;;;;;0.63;0.35;;;;;;;;;;4964969;28;20194;-63
2021/11/27 12:13:09;;;;;;;0.32;0.30;;;;;;;;;;4961673;28;20051;-63
2021/11/27 12:15:46;;;;;;;0.88;0.80;;;;;;;;;;4963456;28;20047;-63
2021/11/27 12:18:16;;;;;;;1.10;0.70;;;;;;;;;;4961859;28;20043;-63
2021/11/27 12:20:59;;;;;;;2.97;1.00;;;;;;;;;;4962612;28;20097;-66
2021/11/27 12:23:28;;;;;;;2.22;1.30;;;;;;;;;;4964703;28;20403;-65
2021/11/27 12:26:22;;;;;;;1.17;0.60;;;;;;;;;;4965800;28;20066;-66
2021/11/27 12:28:48;;;;;;;1.63;0.60;;;;;;;;;;4964706;28;20055;-64
2021/11/27 12:31:22;;;;;;;1.85;0.68;;;;;;;;;;4968928;28;20469;-64
2021/11/27 12:33:59;;;;;;;3.47;0.80;;;;;;;;;;4968074;28;20503;-64
2021/11/27 12:36:26;;;;;;;1.38;0.88;;;;;;;;;;4964729;28;20423;-66
2021/11/27 12:38:55;;;;;;;2.00;1.20;;;;;;;;;;4969200;28;20057;-63
2021/11/27 12:41:26;;;;;;;2.80;1.15;;;;;;;;;;4964877;28;20540;-64
2021/11/27 12:44:16;;;;;;;1.88;1.15;;;;;;;;;;4965385;28;20047;-63
2021/11/27 12:46:51;;;;;;;1.40;0.68;;;;;;;;;;4964798;28;20047;-64
2021/11/27 12:49:33;;;;;;;2.05;0.95;;;;;;;;;;4966388;28;20050;-64
2021/11/27 12:52:10;;;;;;;4.30;1.00;;;;;;;;;;4961494;28;20051;-63
2021/11/27 12:54:38;;;;;;;2.65;0.93;;;;;;;;;;4961214;28;20051;-63
2021/11/27 12:57:04;;;;;;;4.22;1.90;;;;;;;;;;4962698;28;20050;-64
2021/11/27 12:59:31;;;;;;;2.22;1.23;;;;;;;;;;4963868;28;20054;-64
2021/11/27 13:01:58;;;;;;;1.70;1.20;;;;;;;;;;4961774;28;20515;-63
2021/11/27 13:04:33;;;;;;;1.27;1.10;;;;;;;;;;4965752;28;20054;-63
2021/11/27 13:06:59;;;;;;;0.80;0.80;;;;;;;;;;4961051;28;20117;-64
2021/11/27 13:09:26;;;;;;;0.82;0.68;;;;;;;;;;4963712;28;20050;-64
2021/11/27 13:11:57;;;;;;;0.80;0.77;;;;;;;;;;4960449;28;20105;-64
2021/11/27 13:14:24;;;;;;;1.52;0.90;;;;;;;;;;4963802;28;20090;-63
2021/11/27 13:16:51;;;;;;;2.63;1.83;;;;;;;;;;4961056;28;20082;-64
2021/11/27 13:19:28;;;;;;;1.80;1.33;;;;;;;;;;4963451;28;20047;-64
2021/11/27 13:22:05;;;;;;;2.83;1.48;;;;;;;;;;4964940;28;20117;-64
2021/11/27 13:24:36;;;;;;;2.00;1.10;;;;;;;;;;4965847;28;20074;-63
2021/11/27 13:27:06;;;;;;;1.38;1.10;;;;;;;;;;4967045;28;20042;-63
2021/11/27 13:29:32;;;;;;;1.73;1.42;;;;;;;;;;4980736;28;20098;-63
2021/11/27 13:32:01;;;;;;;3.38;2.38;;;;;;;;;;4980680;28;20051;-63
2021/11/27 13:34:27;;;;;;;9.80;5.82;;;;;;;;;;4965527;28;20101;-62
2021/11/27 13:37:09;;;;;;;8.25;4.85;;;;;;;;;;4968483;28;20055;-64
2021/11/27 13:39:37;;;;;;;4.80;4.28;;;;;;;;;;4963792;28;20046;-64
2021/11/27 13:42:13;;;;;;;5.57;4.63;;;;;;;;;;4966682;28;20055;-65
2021/11/27 13:44:41;;;;;;;4.28;3.10;;;;;;;;;;4962077;28;20059;-65
2021/11/27 13:47:12;;;;;;;3.55;2.40;;;;;;;;;;4967920;28;20112;-63
2021/11/27 13:49:42;;;;;;;3.80;2.33;;;;;;;;;;4963663;28;20118;-63
2021/11/27 13:52:19;;;;;;;7.00;3.72;;;;;;;;;;4967996;28;20564;-63
2021/11/27 13:54:51;;;;;;;3.97;2.88;;;;;;;;;;4959543;28;20051;-65
2021/11/27 13:57:18;;;;;;;3.45;3.10;;;;;;;;;;4959952;28;20130;-63
2021/11/27 13:59:46;;;;;;;6.50;4.07;;;;;;;;;;4941152;28;20051;-65
2021/11/27 14:02:14;;;;;;;5.20;3.63;;;;;;;;;;4960781;28;20493;-64
2021/11/27 14:04:42;;;;;;;4.57;3.65;;;;;;;;;;4958370;28;20080;-65
2021/11/27 14:07:16;;;;;;;9.15;4.95;;;;;;;;;;4958367;28;20574;-64
2021/11/27 14:09:53;;;;;;;9.35;5.70;;;;;;;;;;4961748;28;20119;-64
2021/11/27 14:12:40;;;;;;;9.50;5.75;;;;;;;;;;4961187;28;20051;-63
2021/11/27 14:15:06;;;;;;;8.45;4.88;;;;;;;;;;4957824;28;20403;-63
2021/11/27 14:17:34;;;;;;;9.48;5.70;;;;;;;;;;4959020;28;20473;-63
2021/11/27 14:20:18;;;;;;;5.20;4.57;;;;;;;;;;4957568;28;20055;-64
2021/11/27 14:22:50;;;;;;;5.30;3.50;;;;;;;;;;4962166;28;20054;-63
2021/11/27 14:25:17;;;;;;;12.65;6.88;;;;;;;;;;4963220;28;20055;-65
2021/11/27 14:28:03;;;;;;;23.88;10.48;;;;;;;;;;4965747;28;20047;-65
2021/11/27 14:30:34;;;;;;;26.63;9.70;;;;;;;;;;4961005;28;20248;-64
2021/11/27 14:33:18;;;;;;;30.48;10.73;;;;;;;;;;4966878;28;20047;-64
2021/11/27 14:35:58;;;;;;;29.00;12.80;;;;;;;;;;4964405;28;20054;-65
2021/11/27 14:38:41;;;;;;;13.25;7.82;;;;;;;;;;4960192;28;20490;-65
2021/11/27 14:41:22;;;;;;;6.88;4.18;;;;;;;;;;4962265;28;20098;-65
2021/11/27 14:44:17;;;;;;;9.40;4.82;;;;;;;;;;4965738;28;20117;-64
2021/11/27 14:47:05;;;;;;;6.97;3.55;;;;;;;;;;4965079;28;20131;-64
2021/11/27 14:49:39;;;;;;;5.50;3.15;;;;;;;;;;4966682;28;20105;-63
2021/11/27 14:52:23;;;;;;;7.53;4.63;;;;;;;;;;4963781;28;20477;-64
2021/11/27 14:54:53;;;;;;;4.75;3.20;;;;;;;;;;4960206;28;20051;-65